Time;durP1;ratioP1;P1;durP2;ratioP2;P2;SDS_P1;SDS_P2;PMS_P1;PMS_P2;Temp;Humidity;BMP_temperature;BMP_pressure;BME280_temperature;BME280_humidity;BME280_pressure;Samples;Min_cycle;Max_cycle;Signal;HPM_P1;HPM_P2
2021/08/29 00:01:25;;;;;;;5.90;3.10;;;;;;;21.27;67.41;98134.25;5034171;28;20202;-75
2021/08/29 00:03:52;;;;;;;5.23;3.07;;;;;;;21.19;67.80;98125.81;5037614;28;20228;-75
2021/08/29 00:06:19;;;;;;;4.50;3.10;;;;;;;21.53;66.36;98127.03;5042683;28;20209;-74
2021/08/29 00:08:47;;;;;;;5.33;2.83;;;;;;;21.50;66.11;98133.81;5039642;28;20284;-75
2021/08/29 00:11:15;;;;;;;4.13;2.87;;;;;;;21.76;64.70;98130.09;5033985;28;20200;-74
2021/08/29 00:13:43;;;;;;;3.83;2.93;;;;;;;21.93;63.49;98124.44;5033968;28;20230;-75
2021/08/29 00:16:10;;;;;;;8.10;3.00;;;;;;;21.97;63.51;98130.94;5046494;28;20203;-74
2021/08/29 00:18:39;;;;;;;3.13;2.50;;;;;;;21.83;64.18;98121.69;5034925;28;20222;-74
2021/08/29 00:21:07;;;;;;;4.17;2.90;;;;;;;21.92;63.77;98129.03;5044958;28;20197;-74
2021/08/29 00:23:34;;;;;;;3.87;2.50;;;;;;;21.90;63.64;98124.94;5052858;28;20223;-74
2021/08/29 00:26:01;;;;;;;4.57;3.10;;;;;;;22.06;62.01;98130.13;5052860;28;20565;-74
2021/08/29 00:28:30;;;;;;;4.60;3.17;;;;;;;22.06;62.64;98124.69;5043729;28;20237;-74
2021/08/29 00:30:57;;;;;;;4.23;2.93;;;;;;;21.99;62.46;98134.22;5046024;28;20205;-75
2021/08/29 00:33:24;;;;;;;5.57;3.00;;;;;;;22.15;62.11;98130.41;5051607;28;20232;-74
2021/08/29 00:35:52;;;;;;;4.10;3.00;;;;;;;22.33;61.28;98127.97;5053621;28;20203;-74
2021/08/29 00:38:20;;;;;;;4.23;3.20;;;;;;;22.46;60.71;98134.78;5051836;28;20211;-74
2021/08/29 00:40:48;;;;;;;4.80;3.13;;;;;;;22.20;62.21;98125.78;5049665;28;20232;-73
2021/08/29 00:43:15;;;;;;;4.83;3.07;;;;;;;22.32;62.15;98128.22;5048414;28;20222;-74
2021/08/29 00:45:44;;;;;;;7.50;4.50;;;;;;;22.19;62.59;98118.72;5049446;28;20194;-72
2021/08/29 00:48:12;;;;;;;5.43;3.97;;;;;;;22.28;62.11;98122.53;5034984;28;20208;-75
2021/08/29 00:50:44;;;;;;;5.63;3.97;;;;;;;22.25;62.78;98114.91;5036304;28;20201;-74
2021/08/29 00:53:14;;;;;;;5.23;3.33;;;;;;;22.32;61.98;98115.44;5046734;28;20195;-74
2021/08/29 00:55:42;;;;;;;3.33;2.77;;;;;;;22.19;62.67;98116.00;5041406;28;20213;-74
2021/08/29 00:58:09;;;;;;;4.37;3.40;;;;;;;22.24;62.47;98107.84;5050467;28;20206;-75
2021/08/29 01:00:40;;;;;;;5.17;3.27;;;;;;;22.10;63.34;98112.19;5048183;28;20230;-73
2021/08/29 01:03:11;;;;;;;3.63;3.00;;;;;;;22.10;64.62;98105.94;5043811;28;20288;-76
2021/08/29 01:05:42;;;;;;;4.97;2.97;;;;;;;21.96;65.50;98093.97;5052730;28;20202;-76
2021/08/29 01:08:13;;;;;;;4.83;3.03;;;;;;;22.10;64.38;98111.38;5047402;28;20200;-76
2021/08/29 01:10:43;;;;;;;3.77;2.90;;;;;;;21.84;66.68;98105.09;5052053;28;20200;-75
2021/08/29 01:13:11;;;;;;;4.83;2.97;;;;;;;21.82;66.92;98104.56;5038190;28;20646;-75
2021/08/29 01:15:39;;;;;;;4.63;2.93;;;;;;;21.55;68.91;98087.66;5041847;28;20213;-75
2021/08/29 01:18:08;;;;;;;4.73;3.20;;;;;;;21.37;69.59;98092.75;5038719;28;20202;-75
2021/08/29 01:20:45;;;;;;;5.67;3.90;;;;;;;21.86;67.54;98102.94;5051595;28;20236;-75
2021/08/29 01:23:12;;;;;;;4.27;3.03;;;;;;;21.60;68.50;98097.69;5034575;28;20218;-74
2021/08/29 01:25:45;;;;;;;3.63;2.87;;;;;;;21.65;69.03;98095.00;5050219;28;20208;-76
2021/08/29 01:28:14;;;;;;;6.83;3.30;;;;;;;21.52;70.41;98092.78;5040913;28;20656;-74
2021/08/29 01:30:44;;;;;;;5.90;3.27;;;;;;;21.83;68.27;98095.31;5037572;28;20205;-74
2021/08/29 01:33:11;;;;;;;4.93;3.60;;;;;;;21.86;67.74;98096.69;5037658;28;20718;-73
2021/08/29 01:35:40;;;;;;;4.93;3.30;;;;;;;21.73;69.08;98092.59;5039010;28;20195;-75
2021/08/29 01:38:09;;;;;;;4.70;3.30;;;;;;;21.98;67.49;98083.63;5050982;28;20220;-73
2021/08/29 01:40:37;;;;;;;6.10;3.60;;;;;;;21.93;67.65;98083.66;5047970;28;20224;-73
2021/08/29 01:43:05;;;;;;;5.90;3.50;;;;;;;21.75;68.28;98079.56;5036786;28;20675;-74
2021/08/29 01:45:32;;;;;;;4.87;3.37;;;;;;;21.39;70.23;98075.09;5036348;28;20229;-73
2021/08/29 01:48:01;;;;;;;4.57;3.50;;;;;;;21.04;73.95;98074.19;5051305;28;20204;-73
2021/08/29 01:50:29;;;;;;;7.40;3.67;;;;;;;21.46;72.44;98072.13;5050187;28;20203;-73
2021/08/29 01:52:56;;;;;;;4.07;3.17;;;;;;;21.59;70.87;98077.84;5045218;28;20205;-74
2021/08/29 01:55:23;;;;;;;6.60;3.53;;;;;;;21.61;70.63;98070.28;5050452;28;20202;-74
2021/08/29 01:57:51;;;;;;;4.57;3.23;;;;;;;21.76;69.70;98072.22;5049882;28;20207;-74
2021/08/29 02:00:18;;;;;;;4.73;3.30;;;;;;;21.13;73.93;98061.75;5041511;28;20223;-74
2021/08/29 02:02:46;;;;;;;5.67;3.53;;;;;;;21.40;73.02;98056.91;5043138;28;20209;-74
2021/08/29 02:05:14;;;;;;;4.80;3.17;;;;;;;21.38;73.61;98067.25;5035153;28;20593;-75
2021/08/29 02:07:44;;;;;;;4.53;3.70;;;;;;;21.28;73.58;98064.50;5031738;28;20200;-74
2021/08/29 02:10:14;;;;;;;4.47;3.20;;;;;;;20.74;75.66;98049.63;5038525;28;20201;-75
2021/08/29 02:12:46;;;;;;;6.23;3.43;;;;;;;21.52;72.58;98061.03;5034452;28;20570;-75
2021/08/29 02:15:17;;;;;;;4.20;3.50;;;;;;;21.11;73.30;98061.19;5039206;28;20220;-73
2021/08/29 02:17:45;;;;;;;5.37;3.40;;;;;;;21.64;71.28;98063.50;5041945;28;20640;-74
2021/08/29 02:20:17;;;;;;;5.40;3.33;;;;;;;21.51;71.17;98061.28;5042711;28;20218;-74
2021/08/29 02:22:44;;;;;;;4.57;3.20;;;;;;;21.38;71.69;98056.38;5036946;28;20681;-74
2021/08/29 02:25:12;;;;;;;6.00;3.87;;;;;;;21.30;72.85;98062.31;5040320;28;20715;-74
2021/08/29 02:27:40;;;;;;;4.37;3.27;;;;;;;21.58;71.20;98059.13;5034809;28;20209;-75
2021/08/29 02:30:09;;;;;;;5.43;3.53;;;;;;;21.54;72.25;98058.03;5038491;28;20220;-77
2021/08/29 02:32:37;;;;;;;4.60;3.37;;;;;;;21.02;73.42;98060.09;5033845;28;20203;-73
2021/08/29 02:35:06;;;;;;;5.00;3.40;;;;;;;21.31;74.23;98059.34;5050603;28;20323;-74
2021/08/29 02:37:35;;;;;;;6.63;3.83;;;;;;;21.00;76.77;98056.81;5042578;28;20209;-74
2021/08/29 02:40:04;;;;;;;4.40;3.43;;;;;;;20.95;76.60;98049.47;5040401;28;20228;-74
2021/08/29 02:42:32;;;;;;;6.30;3.47;;;;;;;21.18;77.18;98053.63;5048119;28;20687;-73
2021/08/29 02:45:00;;;;;;;4.77;3.43;;;;;;;20.80;79.15;98054.81;5051207;28;20696;-72
2021/08/29 02:47:30;;;;;;;7.07;3.10;;;;;;;21.06;77.66;98062.00;5051166;28;20206;-72
2021/08/29 02:49:58;;;;;;;3.63;3.20;;;;;;;21.02;78.62;98057.38;5048213;28;20202;-72
2021/08/29 02:52:25;;;;;;;5.73;3.90;;;;;;;21.17;77.85;98058.22;5047565;28;20210;-72
2021/08/29 02:54:54;;;;;;;4.80;3.60;;;;;;;20.70;79.68;98049.31;5039104;28;20226;-72
2021/08/29 02:57:22;;;;;;;6.73;3.43;;;;;;;20.81;80.78;98052.88;5031955;28;20573;-74
2021/08/29 02:59:50;;;;;;;5.03;3.67;;;;;;;20.77;82.06;98052.59;5051356;28;20229;-74
2021/08/29 03:02:18;;;;;;;6.87;3.60;;;;;;;20.89;81.16;98052.38;5040819;28;20199;-72
2021/08/29 03:04:46;;;;;;;7.13;4.07;;;;;;;21.24;79.59;98057.97;5038971;28;20226;-72
2021/08/29 03:07:13;;;;;;;6.43;4.33;;;;;;;21.02;80.79;98054.66;5045416;28;20204;-74
2021/08/29 03:09:41;;;;;;;6.80;4.80;;;;;;;21.05;78.92;98051.41;5037786;28;20205;-73
2021/08/29 03:12:11;;;;;;;8.57;4.13;;;;;;;21.00;81.75;98045.94;5036838;28;20198;-73
2021/08/29 03:14:40;;;;;;;7.03;3.83;;;;;;;21.10;80.32;98052.25;5054415;28;20222;-73
2021/08/29 03:17:08;;;;;;;7.97;4.00;;;;;;;20.62;82.06;98043.59;5043000;28;20214;-75
2021/08/29 03:19:38;;;;;;;5.67;3.93;;;;;;;21.00;81.04;98044.06;5036017;28;20224;-75
2021/08/29 03:22:06;;;;;;;7.37;4.07;;;;;;;20.43;83.98;98040.53;5048872;28;20605;-73
2021/08/29 03:24:34;;;;;;;7.07;3.93;;;;;;;20.29;86.03;98042.06;5054087;28;20222;-73
2021/08/29 03:27:02;;;;;;;5.40;4.00;;;;;;;20.05;86.77;98048.06;5038910;28;20543;-74
2021/08/29 03:29:30;;;;;;;5.40;3.87;;;;;;;20.63;85.43;98039.81;5038024;28;20209;-73
2021/08/29 03:31:59;;;;;;;6.90;3.73;;;;;;;20.06;87.84;98044.31;5034747;28;20202;-73
2021/08/29 03:34:27;;;;;;;7.60;4.00;;;;;;;20.58;85.49;98043.28;5039173;28;20235;-73
2021/08/29 03:36:55;;;;;;;5.53;4.03;;;;;;;20.38;85.79;98045.09;5052168;28;20194;-73
2021/08/29 03:39:27;;;;;;;7.13;4.03;;;;;;;20.88;82.78;98037.19;5053541;28;20212;-75
2021/08/29 03:41:58;;;;;;;5.63;3.93;;;;;;;20.64;84.52;98034.13;5054417;28;20190;-73
2021/08/29 03:44:26;;;;;;;5.40;4.03;;;;;;;20.87;83.31;98036.38;5045550;28;20871;-72
2021/08/29 03:46:55;;;;;;;6.00;4.43;;;;;;;21.05;81.53;98037.81;5053985;28;20194;-73
2021/08/29 03:49:25;;;;;;;5.50;3.90;;;;;;;20.83;82.49;98034.47;5051866;28;20223;-73
2021/08/29 03:51:52;;;;;;;6.07;4.83;;;;;;;21.21;81.71;98026.75;5034249;28;20206;-73
2021/08/29 03:54:20;;;;;;;6.63;4.27;;;;;;;21.00;82.89;98035.09;5038646;28;20228;-73
2021/08/29 03:56:47;;;;;;;7.17;4.57;;;;;;;21.29;81.00;98030.84;5041758;28;20198;-73
2021/08/29 03:59:15;;;;;;;6.63;4.17;;;;;;;21.34;81.05;98031.66;5037794;28;20204;-74
2021/08/29 04:01:43;;;;;;;7.93;4.37;;;;;;;21.34;80.61;98022.72;5054123;28;20232;-72
2021/08/29 04:04:11;;;;;;;7.30;4.70;;;;;;;21.34;80.98;98023.50;5047329;28;20227;-73
2021/08/29 04:06:39;;;;;;;6.40;4.50;;;;;;;20.37;84.16;98019.06;5036128;28;20203;-72
2021/08/29 04:09:07;;;;;;;6.57;4.20;;;;;;;20.37;88.11;98021.78;5043694;28;20202;-75
2021/08/29 04:11:35;;;;;;;6.53;4.20;;;;;;;20.06;89.05;98025.34;5053742;28;20194;-73
2021/08/29 04:14:03;;;;;;;5.50;4.00;;;;;;;20.29;87.33;98025.78;5046859;28;20228;-73
2021/08/29 04:16:31;;;;;;;5.43;4.13;;;;;;;20.52;84.60;98021.84;5035798;28;20212;-73
2021/08/29 04:19:00;;;;;;;7.10;4.10;;;;;;;20.25;86.31;98024.69;5049243;28;20213;-73
2021/08/29 04:21:30;;;;;;;6.77;4.30;;;;;;;20.28;86.44;98024.16;5053620;28;20218;-73
2021/08/29 04:23:57;;;;;;;6.87;4.33;;;;;;;20.66;85.16;98031.13;5041557;28;20226;-73
2021/08/29 04:26:25;;;;;;;6.17;4.00;;;;;;;19.95;88.25;98029.03;5044484;28;20200;-74
2021/08/29 04:28:53;;;;;;;6.20;4.30;;;;;;;20.85;85.68;98022.28;5035106;28;20204;-73
2021/08/29 04:31:25;;;;;;;5.53;4.13;;;;;;;20.91;84.47;98018.50;5037541;28;20679;-73
2021/08/29 04:33:52;;;;;;;6.37;4.33;;;;;;;20.95;83.60;98018.78;5047089;28;20241;-73
2021/08/29 04:36:19;;;;;;;6.37;4.40;;;;;;;20.48;87.72;98008.00;5036684;28;20293;-73
2021/08/29 04:38:48;;;;;;;7.80;4.50;;;;;;;20.57;88.09;98009.13;5045501;28;20198;-73
2021/08/29 04:41:15;;;;;;;5.67;4.00;;;;;;;20.67;85.77;98011.88;5043054;28;20233;-73
2021/08/29 04:43:43;;;;;;;7.20;4.23;;;;;;;20.98;84.03;98021.00;5044320;28;20232;-73
2021/08/29 04:46:14;;;;;;;6.90;4.17;;;;;;;21.23;82.25;98015.63;5045879;28;20218;-74
2021/08/29 04:48:41;;;;;;;6.50;4.93;;;;;;;21.16;82.87;98015.88;5043439;28;20252;-74
2021/08/29 04:51:09;;;;;;;5.67;4.50;;;;;;;20.86;83.17;98004.91;5052602;28;20202;-73
2021/08/29 04:53:36;;;;;;;8.60;4.87;;;;;;;20.97;84.88;98003.09;5036144;28;20709;-74
2021/08/29 04:56:05;;;;;;;7.37;4.90;;;;;;;20.77;85.19;98001.06;5035160;28;20213;-75
2021/08/29 04:58:32;;;;;;;8.80;5.13;;;;;;;19.75;93.27;98004.53;5048954;28;20213;-73
2021/08/29 05:01:00;;;;;;;6.83;5.00;;;;;;;19.75;95.92;98009.94;5044675;28;20228;-74
2021/08/29 05:03:27;;;;;;;9.50;5.80;;;;;;;20.02;92.31;98006.06;5046528;28;20728;-73
2021/08/29 05:05:54;;;;;;;7.60;5.47;;;;;;;20.07;89.37;98000.69;5045376;28;20208;-74
2021/08/29 05:08:22;;;;;;;11.60;5.50;;;;;;;20.69;88.30;98004.31;5047142;28;20335;-75
2021/08/29 05:10:49;;;;;;;9.07;5.60;;;;;;;20.85;86.34;98008.69;5038057;28;20208;-73
2021/08/29 05:13:18;;;;;;;8.73;4.80;;;;;;;20.83;85.09;98020.91;5049323;28;20221;-74
2021/08/29 05:15:45;;;;;;;6.07;4.90;;;;;;;20.77;85.51;98011.91;5040368;28;20215;-74
2021/08/29 05:18:12;;;;;;;10.43;5.33;;;;;;;20.48;87.96;98012.59;5033880;28;20214;-74
2021/08/29 05:20:40;;;;;;;7.60;5.20;;;;;;;20.05;91.43;98007.41;5042825;28;20588;-74
2021/08/29 05:23:07;;;;;;;7.97;5.07;;;;;;;19.75;92.26;98004.53;5044155;28;20207;-74
2021/08/29 05:25:34;;;;;;;7.87;4.67;;;;;;;20.27;89.39;98010.88;5044835;28;20217;-74
2021/08/29 05:28:01;;;;;;;6.43;4.67;;;;;;;20.21;89.19;98010.00;5041842;28;20199;-74
2021/08/29 05:30:30;;;;;;;6.43;4.70;;;;;;;20.45;89.61;98000.41;5040445;28;20204;-74
2021/08/29 05:32:58;;;;;;;6.60;4.07;;;;;;;20.61;88.31;98003.97;5050914;28;20285;-74
2021/08/29 05:35:25;;;;;;;5.33;4.13;;;;;;;20.75;86.78;98007.84;5040216;28;20202;-74
2021/08/29 05:37:52;;;;;;;5.07;3.53;;;;;;;20.47;88.22;98008.28;5044610;28;20829;-74
2021/08/29 05:40:19;;;;;;;5.87;3.57;;;;;;;20.35;87.16;98004.94;5032516;28;20232;-74
2021/08/29 05:42:47;;;;;;;5.17;3.90;;;;;;;20.47;86.74;98003.66;5048161;28;20202;-75
2021/08/29 05:45:14;;;;;;;6.30;3.87;;;;;;;20.40;88.15;97994.94;5051920;28;20217;-73
2021/08/29 05:47:43;;;;;;;6.83;3.60;;;;;;;21.05;85.75;98006.09;5042925;28;20207;-75
2021/08/29 05:50:11;;;;;;;5.07;3.93;;;;;;;20.82;87.20;98008.44;5043309;28;20650;-74
2021/08/29 05:52:38;;;;;;;4.43;3.53;;;;;;;20.62;86.49;98001.00;5041748;28;20281;-73
2021/08/29 05:55:06;;;;;;;5.33;3.30;;;;;;;20.83;86.36;98007.34;5039181;28;20222;-75
2021/08/29 05:57:33;;;;;;;3.97;3.03;;;;;;;21.10;82.84;98002.56;5040219;28;20206;-74
2021/08/29 06:00:00;;;;;;;4.57;3.20;;;;;;;20.71;89.13;98004.84;5039533;28;20209;-75
2021/08/29 06:02:31;;;;;;;4.43;3.23;;;;;;;21.17;83.74;98014.00;5032543;28;20208;-74
2021/08/29 06:05:01;;;;;;;4.23;3.20;;;;;;;21.43;82.61;98005.59;5038861;28;20233;-74
2021/08/29 06:07:29;;;;;;;4.00;2.97;;;;;;;20.59;86.61;97995.31;5047378;28;20198;-73
2021/08/29 06:09:56;;;;;;;4.10;3.07;;;;;;;21.05;84.60;98005.25;5042244;28;20207;-74
2021/08/29 06:12:23;;;;;;;5.53;3.00;;;;;;;20.90;83.54;98008.75;5041883;28;20873;-73
2021/08/29 06:14:50;;;;;;;4.57;2.73;;;;;;;20.84;87.12;98007.06;5051632;28;20587;-72
2021/08/29 06:17:18;;;;;;;16.10;2.77;;;;;;;20.81;85.22;98009.47;5048748;28;20202;-74
2021/08/29 06:19:45;;;;;;;3.60;2.53;;;;;;;20.89;81.56;98014.41;5043421;28;20205;-73
2021/08/29 06:22:14;;;;;;;3.33;2.40;;;;;;;21.48;82.32;98005.59;5039920;28;20224;-73
2021/08/29 06:24:41;;;;;;;3.00;2.50;;;;;;;20.41;86.69;98002.00;5035121;28;20226;-73
2021/08/29 06:27:08;;;;;;;2.23;1.93;;;;;;;21.08;85.37;98000.09;5047890;28;20211;-74
2021/08/29 06:29:35;;;;;;;2.77;2.20;;;;;;;21.22;82.50;98003.13;5049071;28;20251;-73
2021/08/29 06:32:03;;;;;;;3.03;2.10;;;;;;;20.88;84.41;98010.06;5046967;28;20200;-73
2021/08/29 06:34:30;;;;;;;4.30;2.33;;;;;;;20.43;89.39;98005.28;5045500;28;20240;-74
2021/08/29 06:36:57;;;;;;;2.50;2.00;;;;;;;20.63;88.29;97997.22;5037901;28;20212;-74
2021/08/29 06:39:26;;;;;;;2.40;1.97;;;;;;;20.84;87.26;98008.97;5049601;28;20220;-73
2021/08/29 06:41:54;;;;;;;2.13;1.80;;;;;;;21.29;84.00;98007.19;5051657;28;20256;-74
2021/08/29 06:44:21;;;;;;;3.33;2.30;;;;;;;21.24;85.69;97990.09;5036769;28;20230;-74
2021/08/29 06:46:48;;;;;;;2.30;1.77;;;;;;;21.64;81.38;97998.28;5040141;28;20204;-75
2021/08/29 06:49:15;;;;;;;2.20;1.90;;;;;;;20.71;83.81;97994.00;5047499;28;20216;-74
2021/08/29 06:51:43;;;;;;;3.13;2.00;;;;;;;21.45;83.03;97983.63;5049311;28;20195;-74
2021/08/29 06:54:10;;;;;;;2.00;1.77;;;;;;;21.15;85.03;97989.81;5035168;28;20220;-73
2021/08/29 06:56:39;;;;;;;4.57;1.50;;;;;;;20.20;87.03;97997.53;5041495;28;20293;-74
2021/08/29 06:59:06;;;;;;;1.70;1.43;;;;;;;20.24;86.15;97990.53;5046616;28;20696;-74
2021/08/29 07:01:33;;;;;;;1.97;1.80;;;;;;;20.27;88.30;97986.47;5052119;28;20229;-74
2021/08/29 07:04:01;;;;;;;2.60;1.43;;;;;;;20.52;91.37;97984.69;5042464;28;20220;-76
2021/08/29 07:06:28;;;;;;;1.47;1.33;;;;;;;20.51;90.24;97988.47;5052904;28;20208;-76
2021/08/29 07:08:55;;;;;;;2.17;1.33;;;;;;;19.91;90.50;97984.59;5036322;28;20209;-77
2021/08/29 07:11:22;;;;;;;5.23;1.40;;;;;;;19.53;97.44;97985.66;5044579;28;20657;-77
2021/08/29 07:13:51;;;;;;;1.33;1.23;;;;;;;19.44;97.48;97978.25;5034590;28;20219;-75
2021/08/29 07:16:18;;;;;;;1.40;1.30;;;;;;;20.93;91.63;97983.00;5044894;28;20199;-71
2021/08/29 07:18:46;;;;;;;1.53;1.33;;;;;;;20.67;91.40;97981.25;5040096;28;20207;-72
2021/08/29 07:21:13;;;;;;;2.17;1.60;;;;;;;21.76;81.01;97975.25;5042923;28;20251;-76
2021/08/29 07:23:40;;;;;;;2.10;1.40;;;;;;;20.81;84.50;97983.19;5054198;28;20264;-73
2021/08/29 07:26:13;;;;;;;1.40;1.30;;;;;;;21.47;83.88;97981.44;5043536;28;20204;-73
2021/08/29 07:28:41;;;;;;;2.10;1.40;;;;;;;21.27;84.73;97978.69;5048022;28;20196;-73
2021/08/29 07:31:09;;;;;;;2.23;1.17;;;;;;;20.60;89.41;97975.22;5043885;28;20210;-74
2021/08/29 07:33:37;;;;;;;1.43;1.23;;;;;;;21.56;85.49;97974.38;5046976;28;20241;-73
2021/08/29 07:36:05;;;;;;;1.50;1.17;;;;;;;20.33;95.03;97980.81;5053719;28;20558;-73
2021/08/29 07:38:32;;;;;;;1.83;1.37;;;;;;;20.77;88.38;97984.78;5049413;28;20214;-74
2021/08/29 07:41:00;;;;;;;1.47;1.23;;;;;;;20.52;92.57;97975.75;5040706;28;20221;-76
2021/08/29 07:43:27;;;;;;;1.87;1.00;;;;;;;20.31;96.58;97972.13;5039904;28;20311;-77
2021/08/29 07:45:54;;;;;;;2.10;1.10;;;;;;;19.56;100.00;97979.72;5042009;28;20204;-72
2021/08/29 07:48:23;;;;;;;1.00;0.90;;;;;;;20.24;93.99;97981.56;5045609;28;20212;-73
2021/08/29 07:50:51;;;;;;;2.07;1.20;;;;;;;21.35;87.48;97983.59;5035667;28;20283;-80
2021/08/29 07:53:18;;;;;;;1.30;1.10;;;;;;;19.97;92.84;97983.53;5043380;28;20701;-77
2021/08/29 07:55:45;;;;;;;0.90;0.90;;;;;;;20.23;91.89;97979.94;5042253;28;20693;-74
2021/08/29 07:58:12;;;;;;;1.20;0.90;;;;;;;20.82;89.61;97979.38;5038692;28;20200;-76
2021/08/29 08:00:40;;;;;;;1.43;0.97;;;;;;;20.00;93.80;97980.28;5042005;28;20202;-73
2021/08/29 08:03:07;;;;;;;2.20;1.00;;;;;;;20.63;91.77;97983.66;5052465;28;20209;-72
2021/08/29 08:05:36;;;;;;;1.93;1.10;;;;;;;20.72;90.27;97975.84;5049849;28;20578;-73
2021/08/29 08:08:03;;;;;;;1.83;0.90;;;;;;;21.39;85.42;97987.41;5042568;28;20273;-72
2021/08/29 08:10:31;;;;;;;0.70;0.70;;;;;;;21.72;83.94;97987.72;5041815;28;20215;-75
2021/08/29 08:12:59;;;;;;;1.10;1.00;;;;;;;21.79;85.32;97988.25;5041083;28;20554;-73
2021/08/29 08:15:26;;;;;;;1.30;0.90;;;;;;;21.26;87.23;97986.03;5047758;28;20208;-74
2021/08/29 08:17:53;;;;;;;0.80;0.80;;;;;;;20.97;91.26;97981.38;5050613;28;20202;-73
2021/08/29 08:20:21;;;;;;;0.63;0.60;;;;;;;21.76;86.71;97979.84;5052486;28;20205;-74
2021/08/29 08:22:50;;;;;;;1.10;0.90;;;;;;;21.98;86.16;97985.78;5047652;28;20231;-71
2021/08/29 08:25:17;;;;;;;1.73;1.00;;;;;;;22.09;83.78;97982.00;5049612;28;20245;-75
2021/08/29 08:27:44;;;;;;;0.93;0.80;;;;;;;21.92;86.19;97976.84;5042885;28;20202;-69
2021/08/29 08:30:13;;;;;;;1.10;1.00;;;;;;;22.42;83.05;97976.75;5044124;28;20455;-72
2021/08/29 08:32:40;;;;;;;0.60;0.60;;;;;;;22.55;82.32;97976.16;5046206;28;20228;-72
2021/08/29 08:35:08;;;;;;;1.10;1.00;;;;;;;22.31;86.34;97977.88;5044063;28;20232;-72
2021/08/29 08:37:35;;;;;;;2.63;1.67;;;;;;;22.06;88.01;97971.66;5041592;28;20202;-72
2021/08/29 08:40:05;;;;;;;2.47;1.87;;;;;;;22.05;89.64;97968.13;5052378;28;20206;-72
2021/08/29 08:42:32;;;;;;;2.60;1.70;;;;;;;22.00;92.58;97970.84;5042268;28;20215;-74
2021/08/29 08:45:00;;;;;;;2.97;2.00;;;;;;;22.81;87.65;97971.44;5044594;28;20222;-76
2021/08/29 08:47:28;;;;;;;2.20;2.00;;;;;;;22.85;88.42;97962.44;5037181;28;20199;-72
2021/08/29 08:49:58;;;;;;;2.67;2.17;;;;;;;23.25;85.55;97964.16;5038207;28;20206;-72
2021/08/29 08:52:27;;;;;;;3.20;2.60;;;;;;;22.15;89.68;97959.94;5034068;28;20199;-74
2021/08/29 08:54:57;;;;;;;3.77;2.90;;;;;;;22.68;88.13;97963.88;5032932;28;20229;-72
2021/08/29 08:57:26;;;;;;;3.10;2.80;;;;;;;22.04;91.48;97966.50;5040163;28;20213;-74
2021/08/29 08:59:53;;;;;;;2.60;2.40;;;;;;;22.91;86.70;97964.03;5052588;28;20569;-72
2021/08/29 09:02:21;;;;;;;3.17;2.70;;;;;;;22.80;88.43;97961.66;5051356;28;20889;-76
2021/08/29 09:04:49;;;;;;;5.53;3.10;;;;;;;22.79;87.65;97957.28;5039587;28;20226;-80
2021/08/29 09:07:17;;;;;;;3.10;2.80;;;;;;;22.73;88.00;97961.94;5033169;28;20202;-74
2021/08/29 09:09:44;;;;;;;4.37;2.50;;;;;;;23.03;85.61;97964.53;5047769;28;20214;-79
2021/08/29 09:12:12;;;;;;;2.67;2.40;;;;;;;22.46;86.66;97972.41;5049059;28;20202;-78
2021/08/29 09:14:42;;;;;;;4.00;2.83;;;;;;;21.47;91.56;97976.00;5049329;28;20227;-73
2021/08/29 09:17:23;;;;;;;3.80;3.00;;;;;;;22.90;85.50;97967.06;5047224;28;20976;-75
2021/08/29 09:19:50;;;;;;;5.13;3.17;;;;;;;22.83;87.36;97963.81;5049940;28;20560;-77
2021/08/29 09:22:26;;;;;;;3.93;3.20;;;;;;;22.19;87.65;97965.66;5045211;28;20222;-79
2021/08/29 09:24:54;;;;;;;3.10;2.80;;;;;;;23.17;81.57;97970.16;5046870;28;20218;-78
2021/08/29 09:27:23;;;;;;;4.93;2.90;;;;;;;22.30;86.91;97967.25;5040997;28;20226;-74
2021/08/29 09:29:52;;;;;;;4.50;2.87;;;;;;;22.34;89.25;97973.78;5032489;28;20206;-77
2021/08/29 09:32:21;;;;;;;4.80;3.23;;;;;;;22.71;87.17;97963.31;5049429;28;20202;-75
2021/08/29 09:34:58;;;;;;;4.10;3.70;;;;;;;22.02;92.26;97970.56;5031950;28;20230;-74
2021/08/29 09:37:26;;;;;;;3.53;3.23;;;;;;;22.36;88.24;97963.44;5040463;28;20297;-71
2021/08/29 09:40:16;;;;;;;3.83;3.30;;;;;;;22.33;84.61;97981.13;5049999;28;20324;-80
2021/08/29 09:42:44;;;;;;;4.00;3.47;;;;;;;22.52;88.27;97971.28;5053197;28;20290;-85
2021/08/29 09:45:24;;;;;;;3.30;3.00;;;;;;;22.27;88.51;97974.06;5058683;28;20298;-79
2021/08/29 09:47:52;;;;;;;6.33;3.53;;;;;;;22.58;86.02;97978.34;5046410;28;20185;-77
2021/08/29 09:50:22;;;;;;;4.53;3.67;;;;;;;22.63;88.70;97974.78;5045661;28;20202;-72
2021/08/29 09:52:50;;;;;;;3.60;3.30;;;;;;;22.90;85.08;97972.50;5045821;28;20313;-71
2021/08/29 09:55:29;;;;;;;5.57;3.40;;;;;;;23.14;84.07;97970.69;5034844;28;20950;-82
2021/08/29 09:57:56;;;;;;;3.63;3.27;;;;;;;22.61;84.46;97969.63;5055181;28;20208;-79
2021/08/29 10:00:25;;;;;;;5.07;4.03;;;;;;;22.70;85.76;97962.50;5045833;28;20202;-76
2021/08/29 10:03:03;;;;;;;5.13;3.50;;;;;;;22.24;86.89;97965.66;5048064;28;20224;-80
2021/08/29 10:05:30;;;;;;;3.83;3.43;;;;;;;23.04;83.35;97966.13;5052582;28;20691;-77
2021/08/29 10:08:09;;;;;;;3.87;3.20;;;;;;;22.79;86.58;97968.16;5050373;28;20198;-76
2021/08/29 10:10:38;;;;;;;7.73;4.17;;;;;;;22.60;88.77;97975.34;5040873;28;20206;-76
2021/08/29 10:13:06;;;;;;;3.80;3.37;;;;;;;22.10;87.69;97975.47;5041507;28;20202;-75
2021/08/29 10:15:36;;;;;;;5.30;3.53;;;;;;;22.84;87.32;97968.97;5039833;28;20202;-74
2021/08/29 10:18:05;;;;;;;4.20;3.80;;;;;;;21.42;90.73;97976.00;5044014;28;20199;-76
2021/08/29 10:20:33;;;;;;;5.20;4.20;;;;;;;22.58;87.88;97967.47;5035262;28;20443;-71
2021/08/29 10:23:01;;;;;;;5.17;3.33;;;;;;;22.50;85.66;97970.75;5043828;28;20596;-77
2021/08/29 10:25:32;;;;;;;3.73;3.33;;;;;;;22.71;83.05;97966.03;5049171;28;20208;-73
2021/08/29 10:28:05;;;;;;;3.50;2.90;;;;;;;22.96;82.93;97977.59;5049101;28;20229;-75
2021/08/29 10:30:35;;;;;;;3.67;3.33;;;;;;;22.64;83.79;97973.72;5051306;28;20574;-77
2021/08/29 10:33:04;;;;;;;3.60;3.30;;;;;;;22.10;87.58;97976.25;5047803;28;20190;-77
2021/08/29 10:35:32;;;;;;;4.03;3.30;;;;;;;23.05;85.50;97966.97;5054500;28;20205;-76
2021/08/29 10:38:00;;;;;;;5.27;3.53;;;;;;;22.37;87.48;97965.88;5050060;28;20612;-74
2021/08/29 10:40:29;;;;;;;4.50;3.50;;;;;;;22.20;86.60;97973.50;5050437;28;20202;-75
2021/08/29 10:42:58;;;;;;;3.80;3.40;;;;;;;22.63;87.58;97970.16;5046697;28;20223;-73
2021/08/29 10:45:26;;;;;;;4.57;3.37;;;;;;;21.72;89.60;97971.44;5044984;28;20659;-75
2021/08/29 10:47:55;;;;;;;3.60;3.30;;;;;;;22.86;87.57;97966.78;5047482;28;20212;-76
2021/08/29 10:50:23;;;;;;;4.97;3.57;;;;;;;22.94;83.82;97958.03;5041722;28;20664;-77
2021/08/29 10:52:51;;;;;;;5.50;2.87;;;;;;;23.35;82.00;97970.31;5038967;28;20195;-83
2021/08/29 10:55:19;;;;;;;3.13;2.83;;;;;;;23.32;80.18;97973.63;5040021;28;20844;-81
2021/08/29 10:57:47;;;;;;;3.97;2.83;;;;;;;22.19;84.21;97971.91;5050480;28;20205;-77
2021/08/29 11:00:17;;;;;;;3.60;2.90;;;;;;;22.03;86.08;97972.19;5040399;28;20663;-76
2021/08/29 11:02:46;;;;;;;3.07;2.77;;;;;;;23.46;80.58;97968.34;5048422;28;20214;-79
2021/08/29 11:05:17;;;;;;;4.03;2.77;;;;;;;23.98;77.24;97972.03;5038748;28;20585;-81
2021/08/29 11:07:50;;;;;;;2.87;2.63;;;;;;;23.15;78.69;97969.63;5046593;28;20209;-78
2021/08/29 11:10:43;;;;;;;3.17;2.90;;;;;;;23.34;81.34;97959.69;5055549;28;20202;-78
2021/08/29 11:13:36;;;;;;;3.10;2.80;;;;;;;23.01;81.00;97958.53;5049551;28;20205;-78
2021/08/29 11:16:16;;;;;;;4.40;2.43;;;;;;;23.65;78.02;97972.00;5041387;28;20855;-76
2021/08/29 11:19:11;;;;;;;3.47;2.70;;;;;;;23.79;76.85;97971.06;5054245;28;20216;-76
2021/08/29 11:22:14;;;;;;;2.80;2.30;;;;;;;22.81;80.38;97963.28;5038946;28;20223;-76
2021/08/29 11:24:50;;;;;;;2.60;2.40;;;;;;;23.64;75.97;97973.91;5047979;28;20309;-76
2021/08/29 11:27:44;;;;;;;2.83;2.50;;;;;;;23.26;78.16;97965.78;5038883;28;20868;-78
2021/08/29 11:30:14;;;;;;;2.60;2.37;;;;;;;23.17;80.99;97960.06;5048466;28;20212;-78
2021/08/29 11:32:45;;;;;;;3.23;2.70;;;;;;;24.41;72.03;97964.72;5033708;28;20201;-78
2021/08/29 11:35:14;;;;;;;2.57;2.37;;;;;;;24.01;74.72;97970.63;5034028;28;20286;-78
2021/08/29 11:37:43;;;;;;;2.30;2.10;;;;;;;24.58;70.49;97974.09;5040543;28;20684;-76
2021/08/29 11:40:12;;;;;;;3.63;2.33;;;;;;;24.54;70.02;97969.50;5051432;28;20206;-78
2021/08/29 11:42:40;;;;;;;3.63;2.07;;;;;;;23.37;76.55;97965.41;5047506;28;20225;-77